Time;durP1;ratioP1;P1;durP2;ratioP2;P2;SDS_P1;SDS_P2;PMS_P1;PMS_P2;Temp;Humidity;BMP_temperature;BMP_pressure;BME280_temperature;BME280_humidity;BME280_pressure;Samples;Min_cycle;Max_cycle;Signal;HPM_P1;HPM_P2
2021/01/07 00:02:24;;;;;;;30.17;15.43;;;;;;;-1.13;58.47;100399.06;5070135;28;20119;-60
2021/01/07 00:04:50;;;;;;;24.90;13.00;;;;;;;-1.07;58.08;100403.34;5070574;28;20060;-59
2021/01/07 00:07:16;;;;;;;35.63;16.75;;;;;;;-1.11;58.03;100396.41;5069947;28;20041;-61
2021/01/07 00:09:41;;;;;;;33.00;17.27;;;;;;;-1.19;58.33;100410.59;5069902;28;20036;-61
2021/01/07 00:12:07;;;;;;;31.23;15.82;;;;;;;-1.27;58.67;100406.41;5069982;28;20459;-62
2021/01/07 00:14:33;;;;;;;33.42;15.90;;;;;;;-1.31;58.59;100400.38;5070123;28;20024;-61
2021/01/07 00:16:58;;;;;;;31.92;16.98;;;;;;;-1.36;59.04;100389.06;5069799;28;20055;-59
2021/01/07 00:19:24;;;;;;;32.35;17.35;;;;;;;-1.60;59.03;100368.56;5069532;28;20507;-57
2021/01/07 00:21:49;;;;;;;31.05;16.85;;;;;;;-1.63;59.27;100360.78;5070194;28;20360;-57
2021/01/07 00:24:15;;;;;;;36.78;17.77;;;;;;;-1.41;59.30;100388.31;5070023;28;20028;-58
2021/01/07 00:26:40;;;;;;;33.05;17.15;;;;;;;-1.64;60.13;100372.16;5069661;28;20474;-59
2021/01/07 00:29:06;;;;;;;37.15;18.42;;;;;;;-1.63;59.71;100358.16;5069360;28;20029;-61
2021/01/07 00:31:32;;;;;;;35.45;17.48;;;;;;;-1.43;59.64;100379.59;5069672;28;20051;-60
2021/01/07 00:33:57;;;;;;;37.03;18.05;;;;;;;-1.45;59.97;100383.13;5073755;28;20507;-57
2021/01/07 00:36:23;;;;;;;38.38;18.00;;;;;;;-1.54;59.45;100351.84;5073715;28;20035;-60
2021/01/07 00:38:48;;;;;;;40.60;18.23;;;;;;;-1.47;59.63;100374.44;5073729;28;20480;-59
2021/01/07 00:41:18;;;;;;;40.13;18.90;;;;;;;-1.56;60.02;100373.75;5073202;28;20091;-57
2021/01/07 00:43:52;;;;;;;38.08;18.80;;;;;;;-1.61;60.42;100365.97;5073835;28;20388;-57
2021/01/07 00:46:18;;;;;;;37.88;17.55;;;;;;;-1.58;60.11;100355.41;5073791;28;20036;-60
2021/01/07 00:48:46;;;;;;;38.17;18.38;;;;;;;-1.41;59.46;100368.19;5073351;28;20032;-59
2021/01/07 00:51:11;;;;;;;37.55;18.13;;;;;;;-1.48;60.03;100364.81;5073228;28;20770;-56
2021/01/07 00:53:37;;;;;;;37.90;18.65;;;;;;;-1.40;59.74;100375.16;5073168;28;20043;-59
2021/01/07 00:56:03;;;;;;;37.88;18.17;;;;;;;-1.44;59.66;100363.00;5073350;28;20111;-57
2021/01/07 00:58:28;;;;;;;41.47;19.42;;;;;;;-1.36;59.68;100361.06;5073208;28;20043;-53
2021/01/07 01:00:54;;;;;;;39.78;18.85;;;;;;;-1.76;59.73;100283.16;5072795;28;20086;-56
2021/01/07 01:03:21;;;;;;;39.85;18.88;;;;;;;-1.48;59.76;100342.94;5073038;28;20098;-59
2021/01/07 01:05:51;;;;;;;44.25;20.85;;;;;;;-1.45;59.82;100350.72;5073592;28;20040;-56
2021/01/07 01:08:17;;;;;;;41.95;19.77;;;;;;;-1.63;59.79;100347.66;5073110;28;20181;-58
2021/01/07 01:10:47;;;;;;;40.97;19.38;;;;;;;-1.74;60.44;100352.25;5072706;28;20172;-61
2021/01/07 01:13:13;;;;;;;38.70;17.88;;;;;;;-1.74;60.57;100378.50;5072824;28;20123;-59
2021/01/07 01:15:38;;;;;;;37.33;17.00;;;;;;;-1.70;60.65;100372.28;5072449;28;20029;-57
2021/01/07 01:18:05;;;;;;;41.53;18.58;;;;;;;-1.81;60.14;100372.53;5073018;28;20028;-58
2021/01/07 01:20:30;;;;;;;37.90;18.38;;;;;;;-1.98;60.93;100345.75;5072859;28;20043;-59
2021/01/07 01:22:56;;;;;;;40.78;19.02;;;;;;;-1.81;60.52;100372.53;5072441;28;20036;-56
2021/01/07 01:25:21;;;;;;;41.63;20.02;;;;;;;-2.60;60.13;100242.94;5072713;28;20028;-52
2021/01/07 01:27:47;;;;;;;45.13;20.25;;;;;;;-1.91;60.93;100358.72;5072948;28;20072;-57
2021/01/07 01:30:14;;;;;;;41.40;20.92;;;;;;;-1.87;60.60;100356.88;5072428;28;20028;-56
2021/01/07 01:32:45;;;;;;;49.00;20.98;;;;;;;-1.84;60.45;100367.31;5072862;28;20040;-59
2021/01/07 01:35:12;;;;;;;46.38;20.65;;;;;;;-1.90;60.38;100354.31;5054548;28;20036;-56
2021/01/07 01:37:38;;;;;;;41.92;19.75;;;;;;;-1.77;60.24;100366.31;5071803;28;20045;-57
2021/01/07 01:40:06;;;;;;;41.60;19.52;;;;;;;-1.88;60.71;100353.41;5072177;28;20051;-58
2021/01/07 01:42:32;;;;;;;37.80;17.20;;;;;;;-1.75;60.53;100363.63;5054457;28;20036;-55
2021/01/07 01:44:57;;;;;;;36.75;18.15;;;;;;;-1.90;60.07;100344.72;5071884;28;20107;-62
2021/01/07 01:47:23;;;;;;;36.25;16.42;;;;;;;-1.97;59.80;100343.09;5071880;28;20040;-54
2021/01/07 01:49:52;;;;;;;37.22;18.33;;;;;;;-1.97;60.75;100356.22;5072268;28;20028;-55
2021/01/07 01:52:19;;;;;;;34.67;17.08;;;;;;;-1.98;60.41;100353.63;5072222;28;20108;-61
2021/01/07 01:54:45;;;;;;;41.78;19.15;;;;;;;-1.81;60.33;100366.41;5053539;28;20085;-58
2021/01/07 01:57:14;;;;;;;37.67;18.13;;;;;;;-1.83;59.86;100328.81;5071691;28;20144;-58
2021/01/07 01:59:41;;;;;;;39.67;18.15;;;;;;;-1.75;60.31;100361.00;5071738;28;20123;-59
2021/01/07 02:02:08;;;;;;;41.20;19.10;;;;;;;-1.77;59.98;100365.44;5071920;28;20032;-60
2021/01/07 02:04:34;;;;;;;38.70;19.20;;;;;;;-1.78;60.07;100347.97;5071414;28;20053;-56
2021/01/07 02:07:03;;;;;;;38.63;18.08;;;;;;;-1.79;60.58;100346.22;5071426;28;20047;-59
2021/01/07 02:09:29;;;;;;;36.85;17.60;;;;;;;-1.77;60.30;100344.44;5071853;28;20051;-58
2021/01/07 02:11:57;;;;;;;34.67;16.60;;;;;;;-1.82;60.28;100348.94;5071800;28;20032;-57
2021/01/07 02:14:22;;;;;;;38.65;17.30;;;;;;;-1.80;60.14;100362.88;5071189;28;20040;-57
2021/01/07 02:16:48;;;;;;;37.97;17.77;;;;;;;-1.85;59.81;100341.97;5071869;28;20408;-57
2021/01/07 02:19:13;;;;;;;37.88;17.67;;;;;;;-1.89;60.32;100346.44;5071528;28;20411;-55
2021/01/07 02:21:39;;;;;;;30.55;13.55;;;;;;;-1.95;59.89;100325.53;5071252;28;20129;-53
2021/01/07 02:24:05;;;;;;;31.17;16.05;;;;;;;-2.03;60.22;100335.34;5070791;28;20040;-57
2021/01/07 02:26:30;;;;;;;34.35;16.58;;;;;;;-1.93;60.06;100354.41;5071356;28;20036;-59
2021/01/07 02:28:56;;;;;;;35.92;17.00;;;;;;;-1.90;60.45;100349.97;5071310;28;20070;-61
2021/01/07 02:31:21;;;;;;;36.83;17.80;;;;;;;-2.41;59.99;100269.66;5071235;28;20408;-51
2021/01/07 02:33:47;;;;;;;35.50;17.45;;;;;;;-2.57;60.38;100250.72;5071405;28;20032;-58
2021/01/07 02:36:12;;;;;;;34.85;17.02;;;;;;;-1.86;60.20;100350.75;5071283;28;20484;-58
2021/01/07 02:38:38;;;;;;;39.47;18.08;;;;;;;-1.79;60.16;100352.38;5071237;28;20047;-59
2021/01/07 02:41:04;;;;;;;35.85;16.92;;;;;;;-1.83;60.15;100344.56;5071308;28;20033;-57
2021/01/07 02:43:30;;;;;;;32.08;15.38;;;;;;;-1.75;59.82;100340.00;5070902;28;20032;-57
2021/01/07 02:45:56;;;;;;;26.13;11.15;;;;;;;-1.68;59.81;100351.25;5070759;28;20036;-58
2021/01/07 02:48:21;;;;;;;28.88;13.73;;;;;;;-1.82;59.83;100362.91;5071204;28;20028;-56
2021/01/07 02:50:47;;;;;;;30.48;15.07;;;;;;;-1.94;59.77;100332.53;5070729;28;20051;-57
2021/01/07 02:53:13;;;;;;;31.17;14.93;;;;;;;-2.04;59.91;100328.38;5070613;28;20032;-58
2021/01/07 02:55:38;;;;;;;32.45;14.65;;;;;;;-1.93;59.85;100346.53;5070268;28;20040;-56
2021/01/07 02:58:04;;;;;;;31.08;15.38;;;;;;;-2.05;59.86;100361.63;5070650;28;20032;-56
2021/01/07 03:00:29;;;;;;;27.83;14.13;;;;;;;-2.08;59.61;100351.19;5070463;28;20032;-59
2021/01/07 03:02:55;;;;;;;29.83;15.20;;;;;;;-2.13;59.78;100336.44;5070140;28;20472;-59
2021/01/07 03:05:20;;;;;;;31.35;13.82;;;;;;;-2.04;59.69;100336.25;5070529;28;20127;-57
2021/01/07 03:07:46;;;;;;;33.90;16.30;;;;;;;-1.97;60.00;100337.00;5070370;28;20082;-57
2021/01/07 03:10:12;;;;;;;33.72;16.45;;;;;;;-2.20;59.78;100312.09;5070245;28;20041;-56
2021/01/07 03:12:38;;;;;;;30.58;15.45;;;;;;;-2.05;59.91;100345.00;5070261;28;20070;-59
2021/01/07 03:15:05;;;;;;;38.40;18.95;;;;;;;-2.14;59.95;100348.69;5070302;28;20470;-60
2021/01/07 03:17:31;;;;;;;35.75;17.20;;;;;;;-2.23;59.74;100336.59;5069969;28;20032;-52
2021/01/07 03:19:56;;;;;;;34.83;18.23;;;;;;;-2.23;60.41;100325.25;5070631;28;20128;-56
2021/01/07 03:22:21;;;;;;;33.97;17.13;;;;;;;-2.14;60.11;100325.06;5070800;28;20028;-53
2021/01/07 03:24:47;;;;;;;36.30;18.67;;;;;;;-2.08;60.02;100329.34;5070530;28;20076;-56
2021/01/07 03:27:12;;;;;;;36.47;16.95;;;;;;;-2.03;60.33;100335.34;5069843;28;20111;-56
2021/01/07 03:29:38;;;;;;;36.95;17.67;;;;;;;-2.22;59.97;100306.84;5070509;28;20123;-57
2021/01/07 03:32:04;;;;;;;38.00;17.30;;;;;;;-2.00;60.55;100331.81;5069994;28;20028;-55
2021/01/07 03:34:29;;;;;;;39.40;16.80;;;;;;;-2.01;60.24;100330.94;5070102;28;20525;-55
2021/01/07 03:36:54;;;;;;;37.03;18.00;;;;;;;-2.27;60.18;100311.34;5070308;28;20035;-53
2021/01/07 03:39:20;;;;;;;37.80;17.10;;;;;;;-2.05;60.05;100331.91;5070337;28;20040;-54
2021/01/07 03:41:46;;;;;;;34.13;16.50;;;;;;;-2.06;60.21;100332.78;5069855;28;20038;-61
2021/01/07 03:44:11;;;;;;;30.67;15.52;;;;;;;-2.12;60.22;100327.69;5069825;28;20097;-58
2021/01/07 03:46:37;;;;;;;35.63;17.77;;;;;;;-2.21;60.15;100319.06;5070209;28;20036;-59
2021/01/07 03:49:03;;;;;;;28.42;13.80;;;;;;;-2.17;60.24;100318.13;5069686;28;20040;-55
2021/01/07 03:51:29;;;;;;;31.60;15.70;;;;;;;-2.37;60.11;100291.44;5069530;28;20037;-57
2021/01/07 03:53:54;;;;;;;37.05;16.95;;;;;;;-2.22;59.96;100317.34;5070179;28;20043;-58
2021/01/07 03:56:20;;;;;;;34.67;15.88;;;;;;;-2.19;60.40;100319.91;5070339;28;20040;-59
2021/01/07 03:58:45;;;;;;;35.92;16.52;;;;;;;-2.25;60.25;100296.44;5069844;28;20452;-54
2021/01/07 04:01:11;;;;;;;35.47;16.75;;;;;;;-2.25;60.17;100301.66;5069755;28;20131;-56
2021/01/07 04:03:36;;;;;;;34.35;15.90;;;;;;;-2.32;59.73;100292.22;5069334;28;20110;-59
2021/01/07 04:06:02;;;;;;;37.42;18.42;;;;;;;-2.35;60.16;100311.47;5069540;28;20388;-55
2021/01/07 04:08:28;;;;;;;39.65;18.50;;;;;;;-2.39;60.26;100301.09;5050202;28;20147;-58
2021/01/07 04:10:53;;;;;;;42.95;18.48;;;;;;;-2.30;60.60;100303.53;5069505;28;20047;-57
2021/01/07 04:13:19;;;;;;;37.17;17.38;;;;;;;-2.17;60.48;100298.91;5069939;28;20048;-57
2021/01/07 04:15:44;;;;;;;34.60;17.27;;;;;;;-2.11;60.05;100303.16;5070186;28;20399;-54
2021/01/07 04:18:11;;;;;;;36.33;17.50;;;;;;;-2.04;60.15;100310.88;5069273;28;20036;-58
2021/01/07 04:20:36;;;;;;;35.47;16.65;;;;;;;-2.04;59.73;100292.50;5069272;28;20043;-59
2021/01/07 04:23:02;;;;;;;36.33;17.20;;;;;;;-2.11;60.04;100292.66;5069261;28;20044;-60
2021/01/07 04:25:27;;;;;;;31.08;15.32;;;;;;;-2.14;60.13;100282.25;5069790;28;20028;-58
2021/01/07 04:27:53;;;;;;;36.72;18.42;;;;;;;-2.27;59.44;100274.63;5069416;28;20495;-58
2021/01/07 04:30:19;;;;;;;36.00;17.95;;;;;;;-2.10;59.24;100304.91;5065567;28;20036;-61
2021/01/07 04:32:44;;;;;;;34.10;15.48;;;;;;;-2.32;59.89;100269.44;5069355;28;20370;-61
2021/01/07 04:35:10;;;;;;;35.58;16.40;;;;;;;-2.13;59.92;100295.31;5069587;28;20055;-59
2021/01/07 04:37:36;;;;;;;32.72;17.42;;;;;;;-2.09;59.40;100291.72;5068861;28;20071;-57
2021/01/07 04:40:01;;;;;;;32.22;15.25;;;;;;;-2.03;59.59;100288.13;5069124;28;20460;-58
2021/01/07 04:42:27;;;;;;;35.50;17.75;;;;;;;-2.07;59.35;100289.94;5069399;28;20230;-56
2021/01/07 04:44:53;;;;;;;31.95;14.93;;;;;;;-2.17;59.26;100286.66;5069476;28;20052;-52
2021/01/07 04:47:19;;;;;;;34.60;16.52;;;;;;;-2.23;59.90;100299.03;5069334;28;20046;-57
2021/01/07 04:49:45;;;;;;;29.25;13.73;;;;;;;-2.22;59.59;100288.50;5068932;28;20131;-57
2021/01/07 04:52:11;;;;;;;28.08;13.50;;;;;;;-2.52;59.53;100248.88;5069496;28;20093;-56
2021/01/07 04:54:36;;;;;;;25.60;12.05;;;;;;;-2.25;59.17;100290.34;5068934;28;20156;-56
2021/01/07 04:57:02;;;;;;;23.98;11.48;;;;;;;-2.30;59.20;100285.16;5069144;28;20033;-54
2021/01/07 04:59:28;;;;;;;25.45;11.85;;;;;;;-2.31;58.77;100275.56;5069357;28;20056;-58
2021/01/07 05:01:54;;;;;;;21.52;10.85;;;;;;;-2.79;58.62;100217.06;5069149;28;20036;-56
2021/01/07 05:04:19;;;;;;;22.27;11.02;;;;;;;-2.46;59.46;100298.56;5069057;28;20052;-55
2021/01/07 05:06:46;;;;;;;19.35;9.07;;;;;;;-2.37;58.91;100289.66;5069258;28;20043;-53
2021/01/07 05:09:12;;;;;;;20.02;8.77;;;;;;;-2.40;59.25;100275.78;5069432;28;20072;-60
2021/01/07 05:11:38;;;;;;;18.83;8.40;;;;;;;-2.55;58.87;100253.31;5068647;28;20134;-59
2021/01/07 05:14:05;;;;;;;20.40;10.40;;;;;;;-2.43;58.66;100283.66;5068999;28;20472;-60
2021/01/07 05:16:31;;;;;;;21.27;10.18;;;;;;;-3.06;59.30;100187.88;5069162;28;20028;-59
2021/01/07 05:18:58;;;;;;;17.90;8.30;;;;;;;-2.49;59.37;100271.56;5070438;28;20032;-55
2021/01/07 05:21:24;;;;;;;21.40;10.70;;;;;;;-2.49;59.14;100264.53;5072268;28;20033;-59
2021/01/07 05:23:51;;;;;;;20.55;10.27;;;;;;;-2.46;58.98;100276.75;5072938;28;20032;-59
2021/01/07 05:26:18;;;;;;;21.33;10.38;;;;;;;-2.38;59.38;100284.47;5072061;28;20040;-58
2021/01/07 05:28:46;;;;;;;19.95;10.25;;;;;;;-2.45;58.56;100255.72;5072076;28;20051;-56
2021/01/07 05:31:12;;;;;;;23.75;10.15;;;;;;;-2.40;59.06;100257.41;5072405;28;20507;-55
2021/01/07 05:33:41;;;;;;;22.38;10.65;;;;;;;-2.50;58.77;100223.50;5072055;28;20058;-53
2021/01/07 05:36:26;;;;;;;20.95;10.68;;;;;;;-2.21;58.65;100271.84;5072111;28;20392;-57
2021/01/07 05:38:55;;;;;;;20.02;10.18;;;;;;;-2.37;58.67;100250.31;5072252;28;20037;-52
2021/01/07 05:41:23;;;;;;;18.05;8.75;;;;;;;-2.15;57.70;100273.50;5072892;28;20059;-61
2021/01/07 05:44:21;;;;;;;19.35;10.18;;;;;;;-2.22;57.96;100269.28;5054437;28;20040;-59
2021/01/07 05:46:46;;;;;;;27.85;10.32;;;;;;;-2.34;58.58;100271.25;5052068;28;20131;-59
2021/01/07 05:49:12;;;;;;;25.05;10.23;;;;;;;-2.32;57.51;100279.94;5072335;28;20136;-52
2021/01/07 05:51:41;;;;;;;18.83;9.27;;;;;;;-2.91;57.46;100163.16;5072321;28;20040;-55
2021/01/07 05:54:07;;;;;;;19.75;10.07;;;;;;;-2.79;57.93;100189.97;5072044;28;20040;-57
2021/01/07 05:56:35;;;;;;;20.92;10.82;;;;;;;-2.76;58.08;100217.00;5071912;28;20033;-51
2021/01/07 05:59:01;;;;;;;20.65;10.43;;;;;;;-2.40;58.11;100254.78;5071982;28;20054;-56
2021/01/07 06:01:29;;;;;;;24.60;12.52;;;;;;;-2.32;58.09;100252.88;5072257;28;20036;-58
2021/01/07 06:03:55;;;;;;;27.30;12.77;;;;;;;-2.22;58.15;100254.38;5071976;28;20503;-59
2021/01/07 06:06:23;;;;;;;25.00;13.38;;;;;;;-2.11;58.54;100255.94;5071930;28;20047;-58
2021/01/07 06:08:58;;;;;;;24.67;11.98;;;;;;;-2.03;58.10;100257.50;5072014;28;20127;-59
2021/01/07 06:11:25;;;;;;;25.27;13.15;;;;;;;-1.97;58.34;100264.34;5072426;28;20040;-58
2021/01/07 06:13:52;;;;;;;26.15;13.30;;;;;;;-2.33;58.26;100188.19;5071966;28;20060;-59
2021/01/07 06:16:20;;;;;;;27.63;13.13;;;;;;;-1.85;57.38;100265.84;5071873;28;20066;-59
2021/01/07 06:18:46;;;;;;;28.25;13.50;;;;;;;-1.94;57.81;100259.03;5071636;28;20119;-57
2021/01/07 06:21:13;;;;;;;27.08;13.75;;;;;;;-1.92;58.30;100259.03;5071875;28;20056;-64
2021/01/07 06:23:43;;;;;;;30.92;14.05;;;;;;;-2.32;57.79;100190.75;5053279;28;20044;-59
2021/01/07 06:26:26;;;;;;;27.27;13.75;;;;;;;-1.78;58.00;100262.22;5071420;28;20373;-60
2021/01/07 06:28:59;;;;;;;29.17;14.50;;;;;;;-1.78;57.33;100251.72;5072065;28;20037;-55
2021/01/07 06:31:36;;;;;;;29.10;14.75;;;;;;;-1.67;57.58;100272.47;5070368;28;20035;-57
2021/01/07 06:34:05;;;;;;;28.45;15.05;;;;;;;-1.63;57.39;100262.75;5070546;28;20119;-60
2021/01/07 06:36:41;;;;;;;29.52;15.45;;;;;;;-1.60;57.23;100268.78;5070274;28;20033;-59
2021/01/07 06:39:08;;;;;;;33.13;16.27;;;;;;;-1.52;56.93;100267.75;5070853;28;20082;-57
2021/01/07 06:41:34;;;;;;;34.15;16.50;;;;;;;-1.83;56.98;100203.69;5070913;28;20033;-59
2021/01/07 06:44:03;;;;;;;34.80;16.60;;;;;;;-1.52;57.18;100266.00;5070962;28;20044;-60
2021/01/07 06:46:44;;;;;;;38.83;18.23;;;;;;;-1.56;57.32;100273.97;5071243;28;20115;-57
2021/01/07 06:49:23;;;;;;;36.70;16.58;;;;;;;-1.63;57.76;100274.13;5071008;28;20568;-57
2021/01/07 06:51:57;;;;;;;38.25;17.60;;;;;;;-1.67;57.84;100282.09;5071102;28;20063;-57
2021/01/07 06:54:36;;;;;;;38.92;17.17;;;;;;;-1.65;57.50;100275.91;5071272;28;20039;-63
2021/01/07 06:57:03;;;;;;;42.05;19.08;;;;;;;-1.71;57.27;100273.41;5070752;28;20040;-59
2021/01/07 06:59:29;;;;;;;41.90;19.08;;;;;;;-1.71;57.81;100262.06;5070946;28;20047;-54
2021/01/07 07:01:57;;;;;;;42.47;20.35;;;;;;;-1.83;57.91;100260.56;5070862;28;20044;-59
2021/01/07 07:04:25;;;;;;;42.13;19.27;;;;;;;-1.65;57.62;100272.41;5070839;28;20056;-60
2021/01/07 07:07:08;;;;;;;42.13;18.92;;;;;;;-1.48;57.89;100282.53;5070160;28;20044;-58
2021/01/07 07:09:40;;;;;;;47.90;22.08;;;;;;;-1.45;57.96;100272.81;5068781;28;20070;-57
2021/01/07 07:12:06;;;;;;;49.17;22.02;;;;;;;-1.33;57.15;100274.28;5069155;28;20081;-60
2021/01/07 07:14:32;;;;;;;49.70;21.80;;;;;;;-1.78;56.42;100193.09;5068884;28;20101;-59
2021/01/07 07:17:05;;;;;;;49.38;22.23;;;;;;;-1.39;57.07;100276.19;5069009;28;20052;-59
2021/01/07 07:19:31;;;;;;;43.55;21.75;;;;;;;-1.44;56.65;100252.69;5051766;28;21003;-60
2021/01/07 07:22:01;;;;;;;50.30;22.27;;;;;;;-1.25;56.44;100263.59;5066207;28;20448;-56
2021/01/07 07:24:35;;;;;;;45.47;22.02;;;;;;;-1.26;56.92;100271.50;5069120;28;20052;-58
2021/01/07 07:27:03;;;;;;;48.47;21.02;;;;;;;-1.20;56.48;100263.50;5066689;28;20392;-61
2021/01/07 07:29:34;;;;;;;45.58;21.65;;;;;;;-1.18;56.05;100262.53;5068971;28;20044;-57
2021/01/07 07:32:00;;;;;;;41.33;18.77;;;;;;;-1.19;56.25;100266.06;5066345;28;20357;-58
2021/01/07 07:34:31;;;;;;;46.10;21.08;;;;;;;-1.25;56.22;100262.72;5068772;28;20470;-58
2021/01/07 07:37:00;;;;;;;42.50;21.80;;;;;;;-1.39;56.80;100263.94;5066402;28;20377;-59
2021/01/07 07:39:27;;;;;;;37.50;19.95;;;;;;;-1.36;56.60;100257.72;5069585;28;20032;-59
2021/01/07 07:42:10;;;;;;;43.53;20.38;;;;;;;-1.35;57.01;100273.47;5070142;28;20028;-56
2021/01/07 07:44:36;;;;;;;43.15;20.67;;;;;;;-1.32;57.28;100268.13;5069130;28;20115;-59
2021/01/07 07:47:05;;;;;;;44.67;20.35;;;;;;;-1.26;57.02;100272.38;5069811;28;20053;-56
2021/01/07 07:49:30;;;;;;;38.92;17.67;;;;;;;-1.15;56.39;100269.50;5051821;28;20047;-57
2021/01/07 07:51:56;;;;;;;37.85;17.40;;;;;;;-1.14;56.62;100254.56;5067826;28;20112;-58
2021/01/07 07:54:21;;;;;;;36.58;17.80;;;;;;;-1.08;56.34;100263.16;5068404;28;20032;-60
2021/01/07 07:56:57;;;;;;;36.50;17.92;;;;;;;-1.21;56.27;100231.09;5067993;28;20068;-57
2021/01/07 07:59:22;;;;;;;34.33;17.45;;;;;;;-0.99;56.33;100259.44;5068166;28;20071;-57
2021/01/07 08:01:49;;;;;;;40.25;18.85;;;;;;;-0.94;54.63;100260.19;5068395;28;20064;-53
2021/01/07 08:04:22;;;;;;;37.75;16.80;;;;;;;-1.19;55.49;100254.72;5067841;28;20358;-57
2021/01/07 08:06:49;;;;;;;39.13;17.60;;;;;;;-1.16;55.24;100259.88;5070469;28;20122;-58
2021/01/07 08:09:16;;;;;;;36.03;18.48;;;;;;;-1.23;55.82;100263.53;5070289;28;20086;-57
2021/01/07 08:11:51;;;;;;;35.88;18.40;;;;;;;-1.19;55.77;100259.97;5069886;28;20047;-59
2021/01/07 08:14:20;;;;;;;37.40;17.40;;;;;;;-1.04;55.44;100262.19;5070152;28;20033;-59
2021/01/07 08:16:47;;;;;;;37.38;17.67;;;;;;;-1.03;55.53;100257.81;5070039;28;20127;-59
2021/01/07 08:19:17;;;;;;;36.33;17.23;;;;;;;-1.09;55.39;100255.31;5069285;28;20032;-58
2021/01/07 08:21:45;;;;;;;34.70;17.55;;;;;;;-1.53;55.18;100184.63;5070377;28;20083;-59
2021/01/07 08:24:11;;;;;;;43.70;19.90;;;;;;;-1.54;55.40;100194.28;5070348;28;20519;-57
2021/01/07 08:26:39;;;;;;;39.60;18.45;;;;;;;-1.25;55.72;100260.09;5070296;28;20055;-61
2021/01/07 08:29:08;;;;;;;37.97;19.58;;;;;;;-1.20;55.63;100250.34;5070089;28;20029;-59
2021/01/07 08:31:37;;;;;;;37.20;17.85;;;;;;;-1.22;55.47;100257.38;5069370;28;20033;-60
2021/01/07 08:34:03;;;;;;;36.40;16.65;;;;;;;-1.27;55.32;100254.03;5052067;28;20162;-59
2021/01/07 08:36:30;;;;;;;38.63;17.17;;;;;;;-1.33;55.81;100236.63;5070140;28;20115;-60
2021/01/07 08:38:55;;;;;;;34.47;15.75;;;;;;;-1.25;55.51;100234.69;5069811;28;20487;-59
2021/01/07 08:41:21;;;;;;;38.72;17.52;;;;;;;-1.31;55.33;100233.09;5070164;28;20032;-61
2021/01/07 08:43:47;;;;;;;29.90;15.43;;;;;;;-1.36;55.71;100229.72;5070026;28;20480;-58
2021/01/07 08:46:22;;;;;;;32.40;15.73;;;;;;;-1.17;55.11;100242.41;5069887;28;20040;-54
2021/01/07 08:49:01;;;;;;;28.73;14.77;;;;;;;-1.12;55.35;100232.63;5069805;28;20072;-59
2021/01/07 08:51:27;;;;;;;29.17;14.13;;;;;;;-1.13;55.34;100230.91;5069613;28;20483;-57
2021/01/07 08:53:55;;;;;;;25.55;14.07;;;;;;;-1.13;55.80;100225.63;5071737;28;20460;-58
2021/01/07 08:56:33;;;;;;;27.67;15.35;;;;;;;-1.01;55.33;100219.19;5073739;28;20032;-58
2021/01/07 08:59:17;;;;;;;29.25;14.57;;;;;;;-0.85;55.16;100219.66;5073546;28;20477;-60
2021/01/07 09:01:48;;;;;;;27.75;14.80;;;;;;;-0.85;55.09;100211.75;5055618;28;20947;-59
2021/01/07 09:04:40;;;;;;;30.35;15.70;;;;;;;-0.82;55.63;100208.19;5073476;28;20056;-57
2021/01/07 09:07:08;;;;;;;27.95;14.88;;;;;;;-0.80;55.00;100201.97;5073630;28;20050;-60
2021/01/07 09:09:54;;;;;;;27.65;14.88;;;;;;;-0.84;55.50;100176.69;5073216;28;20035;-61
2021/01/07 09:12:33;;;;;;;27.70;14.85;;;;;;;-0.68;55.43;100194.66;5073612;28;20106;-61
2021/01/07 09:15:13;;;;;;;33.10;16.10;;;;;;;-0.69;55.35;100188.53;5073467;28;20075;-62
2021/01/07 09:17:48;;;;;;;33.63;16.50;;;;;;;-0.64;54.67;100186.63;5073075;28;20186;-64
2021/01/07 09:20:16;;;;;;;31.58;16.67;;;;;;;-0.66;55.25;100174.44;5073467;28;20039;-63
2021/01/07 09:22:42;;;;;;;38.53;17.52;;;;;;;-0.67;55.02;100170.09;5072611;28;20127;-63
2021/01/07 09:25:11;;;;;;;35.85;18.05;;;;;;;-0.73;54.77;100190.38;5073225;28;20043;-62
2021/01/07 09:27:36;;;;;;;34.72;16.92;;;;;;;-0.83;55.50;100185.44;5072657;28;20040;-61
2021/01/07 09:30:03;;;;;;;33.50;16.15;;;;;;;-0.83;54.99;100188.91;5072817;28;20116;-63
2021/01/07 09:32:29;;;;;;;32.72;17.13;;;;;;;-0.99;55.17;100174.47;5073083;28;20044;-61
2021/01/07 09:34:55;;;;;;;33.92;16.33;;;;;;;-0.96;55.14;100177.03;5072851;28;20422;-62
2021/01/07 09:37:22;;;;;;;30.70;16.25;;;;;;;-0.99;55.19;100177.97;5073186;28;20123;-64
2021/01/07 09:39:49;;;;;;;34.15;17.42;;;;;;;-0.94;54.93;100183.13;5072813;28;20037;-63
2021/01/07 09:42:17;;;;;;;36.50;17.65;;;;;;;-0.92;55.14;100186.56;5072148;28;20075;-63
2021/01/07 09:44:43;;;;;;;34.65;18.85;;;;;;;-1.27;55.18;100106.91;5072868;28;20127;-65
2021/01/07 09:47:08;;;;;;;32.75;17.35;;;;;;;-0.99;54.92;100148.19;5072568;28;20504;-63
2021/01/07 09:49:35;;;;;;;34.63;17.55;;;;;;;-0.84;55.26;100157.41;5072526;28;20040;-63
2021/01/07 09:52:01;;;;;;;36.42;18.23;;;;;;;-0.83;54.85;100157.38;5072448;28;20392;-64
2021/01/07 09:54:27;;;;;;;35.65;15.05;;;;;;;-0.76;55.35;100171.22;5072140;28;20032;-64
2021/01/07 09:56:54;;;;;;;31.20;16.52;;;;;;;-0.73;55.48;100166.72;5072739;28;20044;-64
2021/01/07 09:59:21;;;;;;;35.60;16.92;;;;;;;-0.74;55.04;100167.63;5079171;28;20059;-65
2021/01/07 10:01:47;;;;;;;32.00;17.33;;;;;;;-0.74;55.41;100180.75;5072744;28;20033;-66
2021/01/07 10:04:14;;;;;;;29.75;16.00;;;;;;;-0.69;54.81;100161.41;5071599;28;20095;-63
2021/01/07 10:06:40;;;;;;;32.38;16.42;;;;;;;-0.75;55.27;100154.53;5057280;28;20032;-64
2021/01/07 10:09:06;;;;;;;36.08;18.35;;;;;;;-0.62;54.67;100153.25;5081582;28;20024;-65
2021/01/07 10:11:31;;;;;;;38.50;18.33;;;;;;;-0.57;54.83;100150.50;5086378;28;20043;-64
2021/01/07 10:13:57;;;;;;;35.38;15.50;;;;;;;-0.65;54.53;100123.56;5088220;28;20032;-64
2021/01/07 10:16:22;;;;;;;33.70;17.88;;;;;;;-0.54;54.87;100152.19;5075645;28;20425;-63
2021/01/07 10:18:48;;;;;;;31.15;16.95;;;;;;;-0.39;54.29;100143.81;5083726;28;20040;-64
2021/01/07 10:21:15;;;;;;;32.20;17.25;;;;;;;-0.39;54.62;100137.72;5082522;28;20032;-63
2021/01/07 10:23:43;;;;;;;37.17;18.55;;;;;;;-0.09;54.22;100149.06;5076475;28;20028;-65
2021/01/07 10:26:10;;;;;;;43.35;20.60;;;;;;;0.00;53.94;100145.28;5069058;28;20510;-64
2021/01/07 10:28:37;;;;;;;36.22;19.48;;;;;;;0.00;53.75;100163.72;5087142;28;20071;-64
2021/01/07 10:31:02;;;;;;;49.60;21.63;;;;;;;-0.05;53.40;100115.59;5081482;28;20459;-63
2021/01/07 10:33:31;;;;;;;36.17;20.27;;;;;;;0.14;53.71;100116.72;5074280;28;20044;-62
2021/01/07 10:35:57;;;;;;;41.63;22.27;;;;;;;0.40;53.23;100143.97;5075604;28;20052;-63
2021/01/07 10:38:24;;;;;;;47.50;23.75;;;;;;;0.49;53.08;100134.91;5079438;28;20032;-64
2021/01/07 10:40:51;;;;;;;41.63;22.08;;;;;;;0.52;52.88;100129.53;5082579;28;20475;-63
2021/01/07 10:43:23;;;;;;;44.63;23.38;;;;;;;0.64;52.41;100135.31;5082466;28;20085;-59
2021/01/07 10:45:51;;;;;;;43.22;23.45;;;;;;;0.61;52.41;100131.00;5074953;28;20036;-64
2021/01/07 10:48:20;;;;;;;47.38;23.35;;;;;;;0.63;52.57;100131.81;5087658;28;20496;-64
2021/01/07 10:50:47;;;;;;;48.92;23.40;;;;;;;0.56;52.76;100125.03;5077777;28;20036;-64
2021/01/07 10:53:12;;;;;;;45.72;23.55;;;;;;;0.73;52.55;100123.59;5079361;28;20039;-64
2021/01/07 10:56:04;;;;;;;49.92;24.63;;;;;;;0.83;51.97;100135.53;5085274;28;20040;-64
2021/01/07 10:58:36;;;;;;;47.55;24.75;;;;;;;0.97;51.76;100122.72;5066113;28;20024;-63
2021/01/07 11:01:28;;;;;;;46.08;23.38;;;;;;;1.02;51.52;100121.69;5088848;28;20059;-61
2021/01/07 11:04:06;;;;;;;48.30;24.17;;;;;;;0.77;50.86;100125.19;5074000;28;20053;-62
2021/01/07 11:06:34;;;;;;;49.13;25.17;;;;;;;0.36;51.92;100094.94;5084730;28;20158;-63
2021/01/07 11:09:04;;;;;;;51.53;25.15;;;;;;;0.48;51.59;100120.00;5079300;28;20020;-60
2021/01/07 11:11:39;;;;;;;50.30;24.80;;;;;;;0.45;51.89;100125.41;5076667;28;20043;-62
2021/01/07 11:14:13;;;;;;;47.55;24.88;;;;;;;0.48;51.79;100113.88;5080831;28;20097;-63